createdAt,value
2022-11-23T00:00:15.498Z,1.50
2022-11-23T00:02:38.757Z,2.00
2022-11-23T00:05:02.339Z,1.80
2022-11-23T00:07:25.641Z,1.63
2022-11-23T00:09:48.948Z,1.60
2022-11-23T00:12:12.377Z,2.00
2022-11-23T00:14:36.193Z,1.80
2022-11-23T00:17:00.893Z,2.17
2022-11-23T00:19:24.308Z,1.73
2022-11-23T00:21:47.525Z,1.90
2022-11-23T00:24:13.258Z,2.50
2022-11-23T00:26:36.487Z,1.65
2022-11-23T00:29:00.453Z,1.65
2022-11-23T00:31:25.581Z,1.77
2022-11-23T00:33:55.063Z,2.28
2022-11-23T00:36:19.258Z,1.63
2022-11-23T00:38:43.978Z,1.52
2022-11-23T00:41:10.939Z,2.08
2022-11-23T00:43:34.860Z,1.77
2022-11-23T00:46:09.779Z,2.00
2022-11-23T00:48:33.164Z,2.20
2022-11-23T00:50:57.869Z,2.17
2022-11-23T00:53:21.141Z,1.83
2022-11-23T00:55:52.918Z,1.98
2022-11-23T00:58:16.180Z,1.90
2022-11-23T01:00:39.632Z,2.30
2022-11-23T01:03:02.873Z,2.17
2022-11-23T01:05:26.222Z,2.42
2022-11-23T01:07:50.807Z,2.35
2022-11-23T01:10:14.525Z,1.77
2022-11-23T01:12:37.897Z,1.98
2022-11-23T01:15:03.153Z,2.60
2022-11-23T01:17:26.405Z,2.35
2022-11-23T01:19:49.712Z,2.78
2022-11-23T01:22:12.980Z,2.20
2022-11-23T01:24:37.627Z,2.30
2022-11-23T01:27:00.943Z,2.08
2022-11-23T01:29:25.404Z,2.10
2022-11-23T01:31:48.791Z,2.20
2022-11-23T01:34:14.447Z,2.30
2022-11-23T01:36:37.708Z,2.08
2022-11-23T01:39:02.801Z,2.33
2022-11-23T01:41:31.790Z,2.70
2022-11-23T01:43:55.646Z,2.25
2022-11-23T01:46:19.873Z,2.05
2022-11-23T01:48:47.092Z,2.25
2022-11-23T01:51:14.696Z,2.45
2022-11-23T01:53:39.762Z,2.50
2022-11-23T01:56:06.288Z,2.55
2022-11-23T01:58:35.002Z,2.22
2022-11-23T02:00:59.322Z,1.95
2022-11-23T02:03:23.555Z,2.20
2022-11-23T02:05:53.941Z,2.17
2022-11-23T02:08:20.144Z,2.78
2022-11-23T02:10:43.524Z,1.98
2022-11-23T02:13:11.495Z,2.47
2022-11-23T02:15:37.130Z,2.03
2022-11-23T02:18:02.762Z,3.00
2022-11-23T02:20:26.349Z,2.42
2022-11-23T02:23:02.801Z,2.25
2022-11-23T02:25:35.073Z,2.67
2022-11-23T02:28:01.136Z,2.00
2022-11-23T02:30:24.574Z,2.30
2022-11-23T02:32:50.294Z,2.10
2022-11-23T02:35:14.358Z,1.90
2022-11-23T02:37:40.304Z,2.40
2022-11-23T02:40:12.877Z,2.83
2022-11-23T02:42:36.328Z,2.20
2022-11-23T02:45:15.499Z,2.45
2022-11-23T02:47:38.779Z,2.47
2022-11-23T02:50:02.032Z,2.28
2022-11-23T02:52:25.355Z,2.58
2022-11-23T02:54:48.601Z,3.10
2022-11-23T02:57:11.928Z,2.33
2022-11-23T02:59:36.641Z,2.50
2022-11-23T03:02:01.768Z,3.15
2022-11-23T03:04:28.040Z,2.60
2022-11-23T03:06:51.592Z,2.42
2022-11-23T03:09:14.816Z,3.00
2022-11-23T03:11:38.596Z,2.60
2022-11-23T03:14:02.341Z,2.50
2022-11-23T03:16:28.147Z,2.90
2022-11-23T03:18:53.451Z,3.30
2022-11-23T03:21:16.848Z,2.53
2022-11-23T03:23:40.241Z,2.80
2022-11-23T03:26:11.334Z,2.70
2022-11-23T03:28:42.831Z,2.67
2022-11-23T03:31:06.829Z,2.80
2022-11-23T03:33:30.845Z,2.83
2022-11-23T03:35:56.370Z,2.72
2022-11-23T03:38:24.401Z,2.40
2022-11-23T03:40:49.403Z,2.80
2022-11-23T03:43:44.954Z,2.47
2022-11-23T03:46:08.326Z,3.20
2022-11-23T03:48:31.548Z,2.60
2022-11-23T03:50:56.268Z,3.22
2022-11-23T03:53:19.694Z,2.45
2022-11-23T03:55:42.953Z,2.85
2022-11-23T03:58:07.012Z,3.70
2022-11-23T04:00:33.035Z,2.67
2022-11-23T04:02:56.614Z,2.97
2022-11-23T04:05:38.690Z,2.95
2022-11-23T04:08:18.541Z,3.10
2022-11-23T04:10:41.957Z,3.35
2022-11-23T04:13:15.010Z,2.58
2022-11-23T04:15:38.349Z,2.72
2022-11-23T04:18:01.901Z,2.50
2022-11-23T04:20:25.293Z,3.10
2022-11-23T04:22:48.554Z,2.97
2022-11-23T04:25:13.610Z,3.15
2022-11-23T04:27:36.939Z,3.17
2022-11-23T04:30:00.278Z,2.80
2022-11-23T04:32:23.908Z,2.88
2022-11-23T04:34:47.790Z,3.17
2022-11-23T04:37:13.502Z,3.55
2022-11-23T04:39:38.672Z,2.70
2022-11-23T04:42:10.494Z,2.75
2022-11-23T04:44:34.375Z,3.47
2022-11-23T04:47:01.321Z,2.88
2022-11-23T04:49:24.627Z,2.75
2022-11-23T04:51:47.886Z,3.15
2022-11-23T04:54:13.071Z,3.13
2022-11-23T04:56:43.891Z,2.95
2022-11-23T04:59:08.549Z,3.53
2022-11-23T05:01:31.944Z,2.95
2022-11-23T05:04:30.690Z,2.65
2022-11-23T05:06:54.520Z,2.67
2022-11-23T05:09:18.174Z,2.78
2022-11-23T05:11:56.003Z,2.47
2022-11-23T05:14:20.742Z,3.17
2022-11-23T05:16:44.148Z,2.47
2022-11-23T05:19:07.595Z,2.40
2022-11-23T05:21:31.004Z,3.00
2022-11-23T05:23:55.457Z,2.55
2022-11-23T05:26:18.834Z,2.53
2022-11-23T05:28:42.287Z,2.90
2022-11-23T05:31:11.321Z,2.70
2022-11-23T05:33:34.815Z,3.42
2022-11-23T05:36:00.318Z,2.90
2022-11-23T05:38:32.222Z,2.10
2022-11-23T05:40:57.909Z,2.30
2022-11-23T05:43:21.569Z,2.20
2022-11-23T05:45:45.003Z,2.42
2022-11-23T05:48:12.210Z,2.42
2022-11-23T05:50:47.469Z,2.85
2022-11-23T05:53:21.080Z,2.10
2022-11-23T05:55:49.728Z,2.63
2022-11-23T05:58:14.895Z,2.78
2022-11-23T06:00:38.663Z,2.70
2022-11-23T06:03:05.618Z,3.20
2022-11-23T06:05:31.342Z,2.20
2022-11-23T06:07:55.245Z,2.88
2022-11-23T06:10:22.988Z,2.28
2022-11-23T06:12:49.915Z,2.33
2022-11-23T06:15:15.069Z,2.50
2022-11-23T06:17:38.392Z,2.60
2022-11-23T06:20:07.531Z,2.42
2022-11-23T06:22:35.069Z,2.60
2022-11-23T06:25:01.565Z,2.83
2022-11-23T06:27:41.451Z,2.75
2022-11-23T06:30:15.827Z,3.20
2022-11-23T06:32:39.779Z,3.10
2022-11-23T06:35:03.757Z,3.60
2022-11-23T06:37:31.045Z,3.30
2022-11-23T06:39:55.655Z,2.63
2022-11-23T06:45:04.589Z,2.90
2022-11-23T06:47:29.468Z,3.42
2022-11-23T06:49:54.016Z,4.10
2022-11-23T06:52:23.932Z,2.83
2022-11-23T06:54:48.987Z,3.17
2022-11-23T06:57:13.697Z,3.40
2022-11-23T06:59:40.679Z,4.20
2022-11-23T07:02:08.005Z,3.92
2022-11-23T07:04:32.989Z,3.30
2022-11-23T07:06:56.293Z,3.28
2022-11-23T07:09:31.348Z,2.58
2022-11-23T07:12:22.094Z,3.65
2022-11-23T07:14:45.372Z,2.97
2022-11-23T07:17:08.607Z,3.17
2022-11-23T07:19:34.685Z,3.03
2022-11-23T07:21:58.269Z,2.95
2022-11-23T07:24:22.420Z,2.95
2022-11-23T07:26:45.712Z,3.13
2022-11-23T07:29:11.240Z,3.72
2022-11-23T07:31:34.722Z,3.25
2022-11-23T07:33:58.058Z,2.50
2022-11-23T07:36:21.429Z,2.92
2022-11-23T07:38:44.684Z,2.50
2022-11-23T07:41:10.023Z,2.50
2022-11-23T07:43:51.881Z,2.92
2022-11-23T07:46:17.147Z,2.85
2022-11-23T07:48:40.784Z,2.15
2022-11-23T07:51:04.172Z,2.70
2022-11-23T07:53:27.575Z,2.40
2022-11-23T07:55:51.032Z,2.60
2022-11-23T07:58:14.407Z,3.20
2022-11-23T08:00:37.976Z,2.30
2022-11-23T08:03:26.652Z,3.20
2022-11-23T08:05:46.066Z,3.10
2022-11-23T08:08:09.510Z,3.00
2022-11-23T08:10:34.984Z,3.30
2022-11-23T08:13:03.632Z,2.63
2022-11-23T08:15:28.660Z,3.25
2022-11-23T08:17:56.723Z,2.35
2022-11-23T08:20:21.294Z,3.38
2022-11-23T08:22:44.792Z,2.20
2022-11-23T08:25:09.462Z,2.88
2022-11-23T08:27:32.727Z,2.92
2022-11-23T08:29:55.980Z,2.15
2022-11-23T08:32:19.276Z,2.75
2022-11-23T08:34:44.908Z,3.50
2022-11-23T08:37:09.829Z,3.28
2022-11-23T08:39:33.173Z,2.33
2022-11-23T08:41:56.550Z,3.38
2022-11-23T08:44:19.788Z,2.95
2022-11-23T08:46:43.048Z,2.72
2022-11-23T08:49:07.638Z,2.97
2022-11-23T08:51:31.356Z,2.70
2022-11-23T08:53:55.975Z,2.65
2022-11-23T08:56:19.891Z,2.90
2022-11-23T08:58:43.215Z,3.40
2022-11-23T09:01:10.283Z,3.08
2022-11-23T09:03:33.746Z,3.33
2022-11-23T09:06:01.683Z,2.67
2022-11-23T09:08:24.955Z,2.50
2022-11-23T09:10:49.531Z,2.40
2022-11-23T09:13:13.397Z,2.80
2022-11-23T09:15:37.142Z,2.92
2022-11-23T09:18:01.074Z,2.83
2022-11-23T09:20:24.718Z,2.78
2022-11-23T09:22:53.081Z,3.10
2022-11-23T09:25:17.126Z,2.42
2022-11-23T09:27:41.710Z,2.53
2022-11-23T09:30:06.383Z,2.60
2022-11-23T09:32:29.734Z,2.67
2022-11-23T09:34:52.944Z,2.95
2022-11-23T09:37:16.296Z,3.03
2022-11-23T09:39:39.809Z,3.13
2022-11-23T09:42:22.453Z,2.47
2022-11-23T09:45:06.885Z,3.08
2022-11-23T09:47:51.602Z,3.00
2022-11-23T09:50:24.421Z,3.25
2022-11-23T09:52:51.702Z,2.60
2022-11-23T09:55:22.133Z,3.30
2022-11-23T09:57:48.396Z,2.47
2022-11-23T10:00:20.956Z,2.85
2022-11-23T10:02:44.357Z,3.20
2022-11-23T10:05:12.015Z,2.92
2022-11-23T10:07:51.279Z,2.97
2022-11-23T10:10:32.864Z,3.25
2022-11-23T10:13:07.088Z,2.83
2022-11-23T10:15:39.684Z,2.63
2022-11-23T10:18:17.484Z,2.90
2022-11-23T10:21:02.787Z,2.08
2022-11-23T10:23:43.961Z,2.92
2022-11-23T10:26:11.685Z,2.65
2022-11-23T10:28:37.454Z,2.92
2022-11-23T10:31:13.545Z,3.05
2022-11-23T10:33:49.043Z,2.97
2022-11-23T10:36:14.237Z,3.17
2022-11-23T10:38:37.511Z,3.30
2022-11-23T10:41:06.439Z,2.80
2022-11-23T10:43:34.894Z,2.90
2022-11-23T10:46:30.913Z,2.40
2022-11-23T10:48:55.038Z,2.72
2022-11-23T10:51:25.061Z,3.00
2022-11-23T10:53:55.025Z,3.20
2022-11-23T10:56:18.543Z,2.60
2022-11-23T10:58:46.117Z,2.75
2022-11-23T11:01:16.483Z,3.13
2022-11-23T11:03:41.760Z,3.10
2022-11-23T11:06:09.146Z,3.17
2022-11-23T11:08:36.659Z,2.88
2022-11-23T11:11:03.369Z,3.67
2022-11-23T11:13:33.206Z,2.92
2022-11-23T11:15:59.916Z,2.28
2022-11-23T11:18:26.622Z,2.88
2022-11-23T11:20:59.964Z,2.75
2022-11-23T11:23:24.411Z,2.70
2022-11-23T11:25:50.167Z,2.65
2022-11-23T11:28:25.375Z,2.10
2022-11-23T11:31:04.929Z,2.40
2022-11-23T11:33:36.994Z,2.30
2022-11-23T11:36:03.659Z,2.88
2022-11-23T11:38:32.527Z,2.83
2022-11-23T11:40:58.894Z,2.28
2022-11-23T11:43:37.620Z,2.65
2022-11-23T11:46:28.056Z,2.53
2022-11-23T11:48:55.804Z,2.75
2022-11-23T11:51:25.398Z,2.38
2022-11-23T11:53:57.793Z,2.63
2022-11-23T11:56:29.037Z,2.35
2022-11-23T11:59:00.197Z,2.85
2022-11-23T12:01:34.025Z,2.65
2022-11-23T12:04:03.358Z,2.50
2022-11-23T12:06:39.069Z,2.65
2022-11-23T12:09:09.239Z,2.10
2022-11-23T12:11:33.290Z,2.33
2022-11-23T12:14:04.152Z,2.75
2022-11-23T12:16:34.902Z,2.33
2022-11-23T12:19:11.479Z,1.70
2022-11-23T12:22:22.181Z,2.55
2022-11-23T12:25:11.170Z,2.50
2022-11-23T12:27:49.608Z,2.03
2022-11-23T12:30:23.076Z,2.15
2022-11-23T12:33:07.523Z,1.88
2022-11-23T12:35:56.750Z,1.90
2022-11-23T12:38:32.797Z,2.33
2022-11-23T12:41:16.263Z,1.80
2022-11-23T12:43:58.773Z,1.80
2022-11-23T12:46:34.679Z,2.10
2022-11-23T12:49:15.389Z,2.22
2022-11-23T12:51:50.336Z,2.03
2022-11-23T12:54:38.400Z,2.20
2022-11-23T12:57:13.732Z,2.38
2022-11-23T12:59:46.845Z,1.58
2022-11-23T13:02:28.198Z,2.00
2022-11-23T13:05:28.385Z,1.92
2022-11-23T13:08:22.315Z,1.77
2022-11-23T13:11:08.050Z,1.90
2022-11-23T13:13:49.055Z,1.83
2022-11-23T13:16:57.855Z,1.73
2022-11-23T13:19:42.148Z,1.55
2022-11-23T13:22:07.848Z,1.77
2022-11-23T13:24:34.018Z,1.60
2022-11-23T13:27:43.942Z,1.33
2022-11-23T13:30:23.319Z,1.58
2022-11-23T13:32:58.983Z,1.83
2022-11-23T13:35:57.018Z,1.38
2022-11-23T13:38:27.583Z,1.75
2022-11-23T13:40:50.997Z,1.40
2022-11-23T13:43:19.426Z,1.58
2022-11-23T13:45:42.867Z,1.60
2022-11-23T13:48:49.043Z,1.67
2022-11-23T13:51:03.744Z,1.63
2022-11-23T13:53:30.662Z,1.45
2022-11-23T13:55:55.776Z,1.67
2022-11-23T13:58:52.256Z,2.00
2022-11-23T14:02:16.120Z,1.83
2022-11-23T14:04:42.181Z,2.40
2022-11-23T14:07:07.217Z,1.98
2022-11-23T14:09:37.215Z,1.60
2022-11-23T14:12:08.567Z,2.13
2022-11-23T14:14:46.347Z,1.98
2022-11-23T14:17:52.324Z,2.10
2022-11-23T14:20:52.400Z,2.22
2022-11-23T14:23:58.520Z,1.85
2022-11-23T14:26:36.044Z,1.80
2022-11-23T14:29:18.998Z,1.63
2022-11-23T14:31:56.863Z,1.90
2022-11-23T14:34:31.767Z,1.60
2022-11-23T14:37:09.085Z,1.90
2022-11-23T14:39:56.811Z,2.42
2022-11-23T14:42:24.725Z,2.35
2022-11-23T14:44:50.733Z,1.80
2022-11-23T14:47:14.202Z,1.85
2022-11-23T14:49:38.707Z,1.83
2022-11-23T14:52:05.865Z,2.78
2022-11-23T14:54:30.450Z,1.77
2022-11-23T14:56:56.420Z,1.92
2022-11-23T14:59:24.689Z,1.77
2022-11-23T15:01:52.497Z,1.80
2022-11-23T15:04:25.380Z,1.75
2022-11-23T15:06:52.998Z,1.75
2022-11-23T15:09:36.202Z,2.10
2022-11-23T15:12:08.519Z,2.00
2022-11-23T15:14:32.142Z,2.28
2022-11-23T15:16:55.851Z,2.22
2022-11-23T15:19:21.091Z,2.10
2022-11-23T15:21:46.325Z,2.10
2022-11-23T15:24:23.981Z,2.13
2022-11-23T15:26:49.126Z,2.13
2022-11-23T15:29:33.297Z,2.50
2022-11-23T15:32:22.264Z,2.00
2022-11-23T15:34:41.171Z,2.22
2022-11-23T15:37:04.598Z,2.47
2022-11-23T15:39:39.400Z,2.60
2022-11-23T15:42:02.937Z,2.63
2022-11-23T15:44:28.379Z,2.42
2022-11-23T15:46:53.750Z,2.50
2022-11-23T15:49:18.886Z,2.83
2022-11-23T15:51:45.012Z,2.70
2022-11-23T15:54:19.558Z,2.83
2022-11-23T15:56:48.545Z,2.78
2022-11-23T15:59:29.867Z,3.05
2022-11-23T16:01:53.681Z,2.92
2022-11-23T16:04:28.734Z,3.22
2022-11-23T16:06:52.165Z,3.33
2022-11-23T16:09:53.601Z,3.45
2022-11-23T16:12:28.219Z,3.35
2022-11-23T16:14:51.762Z,3.45
2022-11-23T16:17:20.613Z,2.60
2022-11-23T16:19:48.635Z,2.95
2022-11-23T16:22:26.766Z,2.88
2022-11-23T16:24:52.868Z,2.63
2022-11-23T16:27:16.796Z,3.03
2022-11-23T16:29:42.070Z,2.90
2022-11-23T16:32:07.281Z,3.38
2022-11-23T16:34:31.031Z,3.20
2022-11-23T16:36:55.732Z,3.15
2022-11-23T16:39:19.075Z,3.17
2022-11-23T16:41:42.323Z,2.92
2022-11-23T16:44:06.324Z,3.03
2022-11-23T16:46:32.601Z,3.10
2022-11-23T16:48:57.400Z,3.67
2022-11-23T16:51:21.118Z,3.67
2022-11-23T16:54:12.616Z,3.00
2022-11-23T16:56:30.027Z,3.28
2022-11-23T16:58:54.111Z,3.17
2022-11-23T17:01:22.082Z,3.90
2022-11-23T17:03:46.823Z,3.30
2022-11-23T17:06:15.463Z,3.22
2022-11-23T17:08:38.832Z,3.00
2022-11-23T17:11:02.371Z,3.10
2022-11-23T17:13:29.675Z,3.00
2022-11-23T17:15:53.364Z,2.95
2022-11-23T17:18:17.470Z,3.10
2022-11-23T17:20:42.782Z,3.03
2022-11-23T17:23:06.314Z,3.42
2022-11-23T17:25:30.518Z,2.25
2022-11-23T17:27:54.427Z,2.92
2022-11-23T17:30:23.239Z,3.63
2022-11-23T17:32:48.489Z,2.92
2022-11-23T17:35:11.887Z,2.30
2022-11-23T17:37:38.095Z,2.72
2022-11-23T17:40:01.465Z,2.78
2022-11-23T17:42:24.892Z,3.08
2022-11-23T17:44:48.203Z,3.63
2022-11-23T17:47:22.445Z,4.63
2022-11-23T17:49:45.743Z,4.47
2022-11-23T17:52:12.040Z,4.60
2022-11-23T17:54:36.602Z,5.55
2022-11-23T17:56:59.838Z,4.20
2022-11-23T17:59:23.132Z,4.07
2022-11-23T18:01:46.631Z,3.80
2022-11-23T18:04:09.966Z,3.22
2022-11-23T18:06:33.725Z,2.80
2022-11-23T18:08:57.612Z,3.60
2022-11-23T18:11:23.326Z,3.20
2022-11-23T18:13:47.135Z,3.50
2022-11-23T18:16:12.049Z,3.65
2022-11-23T18:18:36.111Z,4.25
2022-11-23T18:20:59.893Z,3.97
2022-11-23T18:23:23.268Z,4.07
2022-11-23T18:25:47.026Z,4.20
2022-11-23T18:28:11.687Z,4.05
2022-11-23T18:30:35.068Z,3.78
2022-11-23T18:32:58.410Z,3.75
2022-11-23T18:35:21.794Z,3.83
2022-11-23T18:37:45.139Z,3.40
2022-11-23T18:40:10.013Z,3.63
2022-11-23T18:42:33.350Z,3.60
2022-11-23T18:44:58.070Z,3.75
2022-11-23T18:47:21.382Z,3.28
2022-11-23T18:49:44.706Z,3.55
2022-11-23T18:52:09.106Z,2.85
2022-11-23T18:54:32.371Z,3.35
2022-11-23T18:56:55.849Z,3.17
2022-11-23T18:59:49.849Z,3.60
2022-11-23T19:02:05.734Z,3.20
2022-11-23T19:04:29.171Z,2.72
2022-11-23T19:06:52.547Z,2.60
2022-11-23T19:09:15.815Z,3.08
2022-11-23T19:11:39.126Z,2.90
2022-11-23T19:14:02.379Z,2.70
2022-11-23T19:16:28.872Z,3.13
2022-11-23T19:18:57.456Z,2.75
2022-11-23T19:21:23.562Z,2.20
2022-11-23T19:23:51.314Z,3.00
2022-11-23T19:26:14.549Z,2.78
2022-11-23T19:28:38.010Z,2.80
2022-11-23T19:31:11.397Z,2.85
2022-11-23T19:33:34.894Z,2.78
2022-11-23T19:36:06.908Z,3.42
2022-11-23T19:38:32.630Z,3.00
2022-11-23T19:40:56.138Z,3.50
2022-11-23T19:43:19.538Z,3.10
2022-11-23T19:45:42.877Z,3.33
2022-11-23T19:48:07.701Z,3.60
2022-11-23T19:50:30.931Z,3.50
2022-11-23T19:53:11.803Z,3.60
2022-11-23T19:55:36.161Z,3.60
2022-11-23T19:57:59.389Z,2.92
2022-11-23T20:00:23.374Z,3.35
2022-11-23T20:02:46.683Z,3.30
2022-11-23T20:05:12.875Z,3.97
2022-11-23T20:07:36.349Z,3.58
2022-11-23T20:10:01.088Z,3.40
2022-11-23T20:12:24.413Z,3.83
2022-11-23T20:14:47.726Z,3.50
2022-11-23T20:17:11.022Z,4.07
2022-11-23T20:19:34.713Z,3.67
2022-11-23T20:21:58.445Z,4.18
2022-11-23T20:24:21.748Z,4.13
2022-11-23T20:26:46.374Z,4.10
2022-11-23T20:29:10.664Z,3.72
2022-11-23T20:31:34.802Z,4.03
2022-11-23T20:33:58.956Z,3.92
2022-11-23T20:36:24.370Z,3.78
2022-11-23T20:38:48.369Z,4.20
2022-11-23T20:41:16.850Z,4.00
2022-11-23T20:43:42.003Z,4.13
2022-11-23T20:46:05.313Z,4.60
2022-11-23T20:48:29.044Z,4.07
2022-11-23T20:50:52.764Z,4.28
2022-11-23T20:53:16.307Z,4.00
2022-11-23T20:55:39.562Z,3.70
2022-11-23T20:58:02.806Z,4.45
2022-11-23T21:00:27.487Z,4.32
2022-11-23T21:02:51.966Z,4.72
2022-11-23T21:05:15.369Z,5.15
2022-11-23T21:07:38.751Z,4.68
2022-11-23T21:10:02.144Z,4.32
2022-11-23T21:12:47.609Z,4.50
2022-11-23T21:15:15.057Z,4.53
2022-11-23T21:17:39.799Z,4.45
2022-11-23T21:20:03.319Z,4.82
2022-11-23T21:22:26.544Z,5.32
2022-11-23T21:24:49.919Z,4.32
2022-11-23T21:27:14.298Z,5.05
2022-11-23T21:29:38.042Z,4.85
2022-11-23T21:32:02.608Z,5.18
2022-11-23T21:34:30.247Z,4.13
2022-11-23T21:36:54.755Z,3.90
2022-11-23T21:39:18.497Z,4.10
2022-11-23T21:41:42.312Z,5.07
2022-11-23T21:44:07.295Z,4.10
2022-11-23T21:46:30.645Z,5.28
2022-11-23T21:48:55.521Z,4.38
2022-11-23T21:51:20.473Z,4.33
2022-11-23T21:53:43.972Z,4.68
2022-11-23T21:56:10.787Z,5.05
2022-11-23T21:58:34.059Z,4.93
2022-11-23T22:01:04.677Z,5.32
2022-11-23T22:03:28.239Z,5.90
2022-11-23T22:05:57.578Z,5.10
2022-11-23T22:08:30.094Z,5.15
2022-11-23T22:10:53.711Z,5.45
2022-11-23T22:13:17.087Z,6.47
2022-11-23T22:15:40.455Z,6.15
2022-11-23T22:18:03.873Z,5.53
2022-11-23T22:20:27.409Z,4.75
2022-11-23T22:22:50.978Z,4.88
2022-11-23T22:25:16.396Z,4.53
2022-11-23T22:27:40.053Z,5.65
2022-11-23T22:30:03.550Z,4.65
2022-11-23T22:32:26.997Z,4.55
2022-11-23T22:34:50.415Z,4.75
2022-11-23T22:37:18.120Z,5.07
2022-11-23T22:39:41.664Z,4.13
2022-11-23T22:42:06.510Z,4.68
2022-11-23T22:44:29.912Z,5.57
2022-11-23T22:46:53.291Z,5.50
2022-11-23T22:49:16.756Z,4.53
2022-11-23T22:51:41.140Z,5.28
2022-11-23T22:54:05.019Z,4.43
2022-11-23T22:56:30.399Z,4.68
2022-11-23T22:58:55.556Z,5.20
2022-11-23T23:01:20.737Z,4.40
2022-11-23T23:03:44.943Z,4.97
2022-11-23T23:06:10.409Z,4.65
2022-11-23T23:08:35.282Z,4.60
2022-11-23T23:11:05.211Z,5.43
2022-11-23T23:13:28.690Z,5.63
2022-11-23T23:16:02.210Z,5.22
2022-11-23T23:18:25.834Z,4.85
2022-11-23T23:20:49.316Z,5.57
2022-11-23T23:23:13.812Z,5.00
2022-11-23T23:25:37.327Z,4.63
2022-11-23T23:28:00.747Z,4.03
2022-11-23T23:30:24.549Z,4.35
2022-11-23T23:32:49.425Z,4.68
2022-11-23T23:35:12.957Z,5.00
2022-11-23T23:37:36.528Z,5.40
2022-11-23T23:39:59.995Z,3.83
2022-11-23T23:42:23.427Z,4.50
2022-11-23T23:44:46.869Z,4.47
2022-11-23T23:47:10.554Z,5.35
2022-11-23T23:49:35.388Z,4.93
2022-11-23T23:51:58.964Z,4.20
2022-11-23T23:54:23.073Z,4.45
2022-11-23T23:56:46.667Z,4.72
2022-11-23T23:59:10.085Z,4.25
